Aérodrome :
LOGIN :

S'inscrire | Disclaimer

   EN    FR    IT 

 










Légende :    VFR   VFR Marginal   IFR   IFR Intensif   IFR Très Intensif
Visi : 
Plafond : 
>= 8 km
>= 3000ft
5 à 8 km
1000 à 3000 ft
1500m à 5 km
500 à 1000 ft
800 à 1500m
200 à 500 ft
< 800m
< 200 ft
Symboles :   Orages  Brouillard  Fortes neiges  Fortes précipitations  Vent > 20 kt
SIGMETs :   Divers  Orages  Givrage  Turbulence  Onde Orograph.  Cendres Volcan.






- Altitude de l'aérodrome : 465 ft
- Code IATA : OMR


LROD - Oradea International

DERNIER METAR :
  • 280330Z AUTO 13004KT 9999 BKN070/// 16/14 Q1016

METARs EXPIRÉS :
  • 280300Z AUTO 16003KT 9999 BKN065/// BKN095/// 16/14 Q1016
  • 280230Z AUTO 19005KT 9999 FEW044/// BKN055/// 16/14 Q1016
  • 280200Z AUTO 20005KT 9999 SCT042/// OVC055/// 16/14 Q1017
  • 280130Z AUTO 16003KT 100V210 9999 FEW043/// BKN049/// 16/14 Q1016
  • 280100Z AUTO VRB02KT 9999 FEW044/// BKN050/// 16/14 Q1016

TAF TAF LROD
Valide du 28 à 03h jusqu'au 28 à 12h UTC


280200Z 2803/2812 VRB04KT 9999 -RA BKN025 OVC045
TEMPO 2803/2808 5000 -SHRA BKN010 SCT030CB



MET'MAP, la Météo Aéronautique d'un coup d'oeil ! - Copyright ORBIFLY Décembre 2007 - Disclaimer

ORBIFLY MET'MAP TEAM :

Programmation & Développement : Alexandra Zaïnal
Sur une idée originale de : Baudouin d'Aumeries
Assistance à la programmation : Marc-Olivier Méhu
Soutien technique & logistique : Manuel Goepfert

Contact : metmap@orbifly.com




SOURCES & CREDITS :

   NOAA